sensor_id;sensor_type;location;lat;lon;timestamp;P1;durP1;ratioP1;P2;durP2;ratioP2
51872;SDS011;52863;52.504;13.480;2022-10-17T00:00:11;10.60;;;8.90;;
51872;SDS011;52863;52.504;13.480;2022-10-17T00:02:38;12.97;;;9.40;;
51872;SDS011;52863;52.504;13.480;2022-10-17T00:05:05;10.87;;;9.10;;
51872;SDS011;52863;52.504;13.480;2022-10-17T00:07:32;10.87;;;8.20;;
51872;SDS011;52863;52.504;13.480;2022-10-17T00:09:59;11.47;;;9.23;;
51872;SDS011;52863;52.504;13.480;2022-10-17T00:12:25;10.90;;;9.43;;
51872;SDS011;52863;52.504;13.480;2022-10-17T00:14:52;9.57;;;8.27;;
51872;SDS011;52863;52.504;13.480;2022-10-17T00:17:20;10.10;;;7.23;;
51872;SDS011;52863;52.504;13.480;2022-10-17T00:19:47;8.43;;;7.57;;
51872;SDS011;52863;52.504;13.480;2022-10-17T00:22:14;9.17;;;8.27;;
51872;SDS011;52863;52.504;13.480;2022-10-17T00:24:41;9.10;;;7.37;;
51872;SDS011;52863;52.504;13.480;2022-10-17T00:27:08;8.57;;;6.80;;
51872;SDS011;52863;52.504;13.480;2022-10-17T00:29:35;8.97;;;6.50;;
51872;SDS011;52863;52.504;13.480;2022-10-17T00:32:02;8.07;;;6.50;;
51872;SDS011;52863;52.504;13.480;2022-10-17T00:34:29;9.40;;;6.90;;
51872;SDS011;52863;52.504;13.480;2022-10-17T00:36:56;7.30;;;6.53;;
51872;SDS011;52863;52.504;13.480;2022-10-17T00:39:23;8.30;;;7.03;;
51872;SDS011;52863;52.504;13.480;2022-10-17T00:41:50;7.83;;;7.03;;
51872;SDS011;52863;52.504;13.480;2022-10-17T00:47:21;12.07;;;6.43;;
51872;SDS011;52863;52.504;13.480;2022-10-17T00:49:49;8.23;;;6.63;;
51872;SDS011;52863;52.504;13.480;2022-10-17T00:52:17;7.73;;;6.07;;
51872;SDS011;52863;52.504;13.480;2022-10-17T00:54:46;7.00;;;6.30;;
51872;SDS011;52863;52.504;13.480;2022-10-17T00:57:13;6.30;;;5.70;;
51872;SDS011;52863;52.504;13.480;2022-10-17T00:59:41;10.43;;;7.07;;
51872;SDS011;52863;52.504;13.480;2022-10-17T01:02:10;7.00;;;6.10;;
51872;SDS011;52863;52.504;13.480;2022-10-17T01:04:38;9.00;;;6.13;;
51872;SDS011;52863;52.504;13.480;2022-10-17T01:07:06;7.93;;;5.97;;
51872;SDS011;52863;52.504;13.480;2022-10-17T01:09:33;10.03;;;5.90;;
51872;SDS011;52863;52.504;13.480;2022-10-17T01:12:02;7.23;;;6.23;;
51872;SDS011;52863;52.504;13.480;2022-10-17T01:14:35;5.63;;;4.93;;
51872;SDS011;52863;52.504;13.480;2022-10-17T01:17:06;6.23;;;5.13;;
51872;SDS011;52863;52.504;13.480;2022-10-17T01:19:45;6.00;;;5.50;;
51872;SDS011;52863;52.504;13.480;2022-10-17T01:22:20;5.50;;;5.00;;
51872;SDS011;52863;52.504;13.480;2022-10-17T01:24:55;6.03;;;5.43;;
51872;SDS011;52863;52.504;13.480;2022-10-17T01:27:35;7.50;;;5.50;;
51872;SDS011;52863;52.504;13.480;2022-10-17T01:33:02;6.10;;;5.47;;
51872;SDS011;52863;52.504;13.480;2022-10-17T01:35:33;9.03;;;5.07;;
51872;SDS011;52863;52.504;13.480;2022-10-17T01:38:03;6.70;;;5.33;;
51872;SDS011;52863;52.504;13.480;2022-10-17T01:40:32;5.97;;;5.37;;
51872;SDS011;52863;52.504;13.480;2022-10-17T01:43:02;6.83;;;6.13;;
51872;SDS011;52863;52.504;13.480;2022-10-17T01:45:30;6.47;;;5.73;;
51872;SDS011;52863;52.504;13.480;2022-10-17T01:48:00;6.60;;;5.63;;
51872;SDS011;52863;52.504;13.480;2022-10-17T01:50:31;7.83;;;5.83;;
51872;SDS011;52863;52.504;13.480;2022-10-17T01:53:00;8.80;;;6.17;;
51872;SDS011;52863;52.504;13.480;2022-10-17T01:55:28;6.17;;;5.57;;
51872;SDS011;52863;52.504;13.480;2022-10-17T01:57:58;6.73;;;5.70;;
51872;SDS011;52863;52.504;13.480;2022-10-17T02:00:26;6.50;;;5.80;;
51872;SDS011;52863;52.504;13.480;2022-10-17T02:02:54;6.93;;;6.23;;
51872;SDS011;52863;52.504;13.480;2022-10-17T02:05:23;9.13;;;5.90;;
51872;SDS011;52863;52.504;13.480;2022-10-17T02:07:51;9.80;;;6.70;;
51872;SDS011;52863;52.504;13.480;2022-10-17T02:10:20;7.00;;;6.30;;
51872;SDS011;52863;52.504;13.480;2022-10-17T02:12:49;6.47;;;5.87;;
51872;SDS011;52863;52.504;13.480;2022-10-17T02:15:31;7.30;;;6.03;;
51872;SDS011;52863;52.504;13.480;2022-10-17T02:18:05;8.60;;;6.53;;
51872;SDS011;52863;52.504;13.480;2022-10-17T02:20:35;7.07;;;6.37;;
51872;SDS011;52863;52.504;13.480;2022-10-17T02:23:06;7.23;;;6.53;;
51872;SDS011;52863;52.504;13.480;2022-10-17T02:25:35;8.83;;;6.33;;
51872;SDS011;52863;52.504;13.480;2022-10-17T02:28:08;7.40;;;6.43;;
51872;SDS011;52863;52.504;13.480;2022-10-17T02:30:42;8.40;;;6.93;;
51872;SDS011;52863;52.504;13.480;2022-10-17T02:33:11;8.30;;;6.90;;
51872;SDS011;52863;52.504;13.480;2022-10-17T02:35:40;8.90;;;6.93;;
51872;SDS011;52863;52.504;13.480;2022-10-17T02:38:09;9.30;;;7.20;;
51872;SDS011;52863;52.504;13.480;2022-10-17T02:40:36;8.33;;;6.47;;
51872;SDS011;52863;52.504;13.480;2022-10-17T02:43:05;6.80;;;6.10;;
51872;SDS011;52863;52.504;13.480;2022-10-17T02:45:32;6.83;;;6.13;;
51872;SDS011;52863;52.504;13.480;2022-10-17T02:48:01;8.63;;;6.37;;
51872;SDS011;52863;52.504;13.480;2022-10-17T02:50:32;8.50;;;6.20;;
51872;SDS011;52863;52.504;13.480;2022-10-17T02:53:03;9.33;;;6.23;;
51872;SDS011;52863;52.504;13.480;2022-10-17T02:55:32;6.77;;;6.10;;
51872;SDS011;52863;52.504;13.480;2022-10-17T02:58:01;10.53;;;5.83;;
51872;SDS011;52863;52.504;13.480;2022-10-17T03:00:30;6.53;;;5.93;;
51872;SDS011;52863;52.504;13.480;2022-10-17T03:02:57;6.30;;;5.70;;
51872;SDS011;52863;52.504;13.480;2022-10-17T03:05:25;6.93;;;6.20;;
51872;SDS011;52863;52.504;13.480;2022-10-17T03:07:53;7.23;;;5.80;;
51872;SDS011;52863;52.504;13.480;2022-10-17T03:10:20;9.57;;;5.77;;
51872;SDS011;52863;52.504;13.480;2022-10-17T03:12:47;7.40;;;5.40;;
51872;SDS011;52863;52.504;13.480;2022-10-17T03:15:15;7.43;;;5.53;;
51872;SDS011;52863;52.504;13.480;2022-10-17T03:17:41;6.80;;;6.10;;
51872;SDS011;52863;52.504;13.480;2022-10-17T03:20:13;7.27;;;6.43;;
51872;SDS011;52863;52.504;13.480;2022-10-17T03:22:40;9.47;;;6.10;;
51872;SDS011;52863;52.504;13.480;2022-10-17T03:25:07;7.67;;;6.10;;
51872;SDS011;52863;52.504;13.480;2022-10-17T03:27:34;6.10;;;5.50;;
51872;SDS011;52863;52.504;13.480;2022-10-17T03:30:02;6.10;;;5.50;;
51872;SDS011;52863;52.504;13.480;2022-10-17T03:32:31;7.80;;;5.80;;
51872;SDS011;52863;52.504;13.480;2022-10-17T03:34:58;6.83;;;5.70;;
51872;SDS011;52863;52.504;13.480;2022-10-17T03:37:25;6.53;;;5.73;;
51872;SDS011;52863;52.504;13.480;2022-10-17T03:39:52;8.17;;;6.60;;
51872;SDS011;52863;52.504;13.480;2022-10-17T03:42:19;10.17;;;6.07;;
51872;SDS011;52863;52.504;13.480;2022-10-17T03:44:46;7.73;;;6.53;;
51872;SDS011;52863;52.504;13.480;2022-10-17T03:47:13;7.97;;;6.03;;
51872;SDS011;52863;52.504;13.480;2022-10-17T03:49:40;8.67;;;6.13;;
51872;SDS011;52863;52.504;13.480;2022-10-17T03:52:09;6.93;;;6.23;;
51872;SDS011;52863;52.504;13.480;2022-10-17T03:54:36;6.80;;;6.10;;
51872;SDS011;52863;52.504;13.480;2022-10-17T03:57:03;6.87;;;6.17;;
51872;SDS011;52863;52.504;13.480;2022-10-17T03:59:30;7.13;;;6.43;;
51872;SDS011;52863;52.504;13.480;2022-10-17T04:01:57;6.77;;;5.93;;
51872;SDS011;52863;52.504;13.480;2022-10-17T04:04:25;11.37;;;6.67;;
51872;SDS011;52863;52.504;13.480;2022-10-17T04:06:51;8.57;;;6.63;;
51872;SDS011;52863;52.504;13.480;2022-10-17T04:09:18;7.37;;;6.67;;
51872;SDS011;52863;52.504;13.480;2022-10-17T04:11:45;9.23;;;6.60;;
51872;SDS011;52863;52.504;13.480;2022-10-17T04:14:12;7.63;;;6.93;;
51872;SDS011;52863;52.504;13.480;2022-10-17T04:16:39;7.47;;;6.77;;
51872;SDS011;52863;52.504;13.480;2022-10-17T04:19:06;7.67;;;6.87;;
51872;SDS011;52863;52.504;13.480;2022-10-17T04:21:34;7.73;;;6.93;;
51872;SDS011;52863;52.504;13.480;2022-10-17T04:24:00;7.73;;;7.03;;
51872;SDS011;52863;52.504;13.480;2022-10-17T04:26:27;8.33;;;7.53;;
51872;SDS011;52863;52.504;13.480;2022-10-17T04:28:54;8.80;;;7.90;;
51872;SDS011;52863;52.504;13.480;2022-10-17T04:31:21;8.77;;;7.47;;
51872;SDS011;52863;52.504;13.480;2022-10-17T04:33:48;9.43;;;8.03;;
51872;SDS011;52863;52.504;13.480;2022-10-17T04:36:16;11.47;;;7.80;;
51872;SDS011;52863;52.504;13.480;2022-10-17T04:38:44;9.43;;;8.47;;
51872;SDS011;52863;52.504;13.480;2022-10-17T04:41:12;8.10;;;7.30;;
51872;SDS011;52863;52.504;13.480;2022-10-17T04:43:39;8.23;;;7.43;;
51872;SDS011;52863;52.504;13.480;2022-10-17T04:46:12;7.70;;;6.87;;
51872;SDS011;52863;52.504;13.480;2022-10-17T04:48:39;7.97;;;7.27;;
51872;SDS011;52863;52.504;13.480;2022-10-17T04:51:07;9.33;;;8.10;;
51872;SDS011;52863;52.504;13.480;2022-10-17T04:53:36;8.00;;;6.53;;
51872;SDS011;52863;52.504;13.480;2022-10-17T04:56:06;8.43;;;7.63;;
51872;SDS011;52863;52.504;13.480;2022-10-17T04:58:34;10.50;;;7.83;;
51872;SDS011;52863;52.504;13.480;2022-10-17T05:01:03;8.97;;;7.57;;
51872;SDS011;52863;52.504;13.480;2022-10-17T05:03:30;9.70;;;8.70;;
51872;SDS011;52863;52.504;13.480;2022-10-17T05:05:57;10.20;;;9.13;;
51872;SDS011;52863;52.504;13.480;2022-10-17T05:08:24;11.07;;;8.13;;
51872;SDS011;52863;52.504;13.480;2022-10-17T05:10:50;14.13;;;9.80;;
51872;SDS011;52863;52.504;13.480;2022-10-17T05:13:18;11.00;;;9.60;;
51872;SDS011;52863;52.504;13.480;2022-10-17T05:15:45;11.33;;;10.20;;
51872;SDS011;52863;52.504;13.480;2022-10-17T05:18:12;11.97;;;10.63;;
51872;SDS011;52863;52.504;13.480;2022-10-17T05:20:39;12.60;;;10.07;;
51872;SDS011;52863;52.504;13.480;2022-10-17T05:23:05;14.07;;;10.50;;
51872;SDS011;52863;52.504;13.480;2022-10-17T05:25:32;12.23;;;10.43;;
51872;SDS011;52863;52.504;13.480;2022-10-17T05:27:59;12.33;;;11.03;;
51872;SDS011;52863;52.504;13.480;2022-10-17T05:30:27;13.57;;;10.73;;
51872;SDS011;52863;52.504;13.480;2022-10-17T05:32:55;13.13;;;10.13;;
51872;SDS011;52863;52.504;13.480;2022-10-17T05:35:22;11.33;;;10.20;;
51872;SDS011;52863;52.504;13.480;2022-10-17T05:37:49;13.20;;;10.63;;
51872;SDS011;52863;52.504;13.480;2022-10-17T05:40:16;11.73;;;10.53;;
51872;SDS011;52863;52.504;13.480;2022-10-17T05:42:46;11.57;;;10.30;;
51872;SDS011;52863;52.504;13.480;2022-10-17T05:45:14;11.30;;;9.97;;
51872;SDS011;52863;52.504;13.480;2022-10-17T05:47:42;11.20;;;10.00;;
51872;SDS011;52863;52.504;13.480;2022-10-17T05:50:09;16.10;;;10.33;;
51872;SDS011;52863;52.504;13.480;2022-10-17T05:52:36;12.90;;;10.13;;
51872;SDS011;52863;52.504;13.480;2022-10-17T05:55:03;12.67;;;10.80;;
51872;SDS011;52863;52.504;13.480;2022-10-17T05:57:30;16.13;;;10.27;;
51872;SDS011;52863;52.504;13.480;2022-10-17T05:59:57;13.00;;;11.00;;
51872;SDS011;52863;52.504;13.480;2022-10-17T06:02:25;13.13;;;11.40;;
51872;SDS011;52863;52.504;13.480;2022-10-17T06:04:53;12.63;;;10.60;;
51872;SDS011;52863;52.504;13.480;2022-10-17T06:07:20;12.80;;;10.53;;
51872;SDS011;52863;52.504;13.480;2022-10-17T06:09:47;14.27;;;10.53;;
51872;SDS011;52863;52.504;13.480;2022-10-17T06:12:14;12.13;;;10.20;;
51872;SDS011;52863;52.504;13.480;2022-10-17T06:14:40;13.10;;;10.77;;
51872;SDS011;52863;52.504;13.480;2022-10-17T06:17:07;11.43;;;10.23;;
51872;SDS011;52863;52.504;13.480;2022-10-17T06:19:41;13.70;;;10.50;;
51872;SDS011;52863;52.504;13.480;2022-10-17T06:22:09;13.30;;;10.50;;
51872;SDS011;52863;52.504;13.480;2022-10-17T06:24:36;11.90;;;10.13;;
51872;SDS011;52863;52.504;13.480;2022-10-17T06:27:03;11.60;;;10.40;;
51872;SDS011;52863;52.504;13.480;2022-10-17T06:29:37;10.57;;;9.43;;
51872;SDS011;52863;52.504;13.480;2022-10-17T06:32:04;9.63;;;8.63;;
51872;SDS011;52863;52.504;13.480;2022-10-17T06:34:36;10.33;;;9.23;;
51872;SDS011;52863;52.504;13.480;2022-10-17T06:37:03;11.50;;;9.00;;
51872;SDS011;52863;52.504;13.480;2022-10-17T06:39:30;11.07;;;9.30;;
51872;SDS011;52863;52.504;13.480;2022-10-17T06:41:58;10.27;;;8.57;;
51872;SDS011;52863;52.504;13.480;2022-10-17T06:44:25;9.93;;;8.77;;
51872;SDS011;52863;52.504;13.480;2022-10-17T06:46:56;9.63;;;8.50;;
51872;SDS011;52863;52.504;13.480;2022-10-17T06:49:23;11.43;;;8.63;;
51872;SDS011;52863;52.504;13.480;2022-10-17T06:51:50;10.13;;;8.13;;
51872;SDS011;52863;52.504;13.480;2022-10-17T06:54:17;30.63;;;19.93;;
51872;SDS011;52863;52.504;13.480;2022-10-17T06:56:46;11.13;;;8.73;;
51872;SDS011;52863;52.504;13.480;2022-10-17T06:59:13;9.40;;;7.20;;
51872;SDS011;52863;52.504;13.480;2022-10-17T07:01:40;11.10;;;7.87;;
51872;SDS011;52863;52.504;13.480;2022-10-17T07:04:12;9.33;;;7.20;;
51872;SDS011;52863;52.504;13.480;2022-10-17T07:06:39;12.67;;;7.43;;
51872;SDS011;52863;52.504;13.480;2022-10-17T07:09:06;9.13;;;7.77;;
51872;SDS011;52863;52.504;13.480;2022-10-17T07:11:40;13.37;;;7.57;;
51872;SDS011;52863;52.504;13.480;2022-10-17T07:14:07;9.97;;;6.93;;
51872;SDS011;52863;52.504;13.480;2022-10-17T07:16:34;8.67;;;7.13;;
51872;SDS011;52863;52.504;13.480;2022-10-17T07:19:01;7.23;;;6.53;;
51872;SDS011;52863;52.504;13.480;2022-10-17T07:21:28;7.20;;;6.50;;
51872;SDS011;52863;52.504;13.480;2022-10-17T07:23:59;7.87;;;6.17;;
51872;SDS011;52863;52.504;13.480;2022-10-17T07:26:25;6.27;;;5.67;;
51872;SDS011;52863;52.504;13.480;2022-10-17T07:28:53;10.47;;;6.00;;
51872;SDS011;52863;52.504;13.480;2022-10-17T07:31:21;9.93;;;6.20;;
51872;SDS011;52863;52.504;13.480;2022-10-17T07:33:48;7.30;;;6.50;;
51872;SDS011;52863;52.504;13.480;2022-10-17T07:36:16;6.53;;;5.83;;
51872;SDS011;52863;52.504;13.480;2022-10-17T07:38:43;10.77;;;5.30;;
51872;SDS011;52863;52.504;13.480;2022-10-17T07:41:10;8.97;;;4.80;;
51872;SDS011;52863;52.504;13.480;2022-10-17T07:43:40;6.27;;;5.27;;
51872;SDS011;52863;52.504;13.480;2022-10-17T07:46:07;5.97;;;4.47;;
51872;SDS011;52863;52.504;13.480;2022-10-17T07:48:37;5.17;;;4.67;;
51872;SDS011;52863;52.504;13.480;2022-10-17T07:51:06;9.17;;;4.37;;
51872;SDS011;52863;52.504;13.480;2022-10-17T07:53:34;6.30;;;4.23;;
51872;SDS011;52863;52.504;13.480;2022-10-17T07:56:02;4.67;;;3.50;;
51872;SDS011;52863;52.504;13.480;2022-10-17T07:58:29;5.50;;;3.87;;
51872;SDS011;52863;52.504;13.480;2022-10-17T08:00:59;4.40;;;3.63;;
51872;SDS011;52863;52.504;13.480;2022-10-17T08:03:31;5.17;;;3.63;;
51872;SDS011;52863;52.504;13.480;2022-10-17T08:05:58;4.60;;;3.23;;
51872;SDS011;52863;52.504;13.480;2022-10-17T08:08:26;4.77;;;3.20;;
51872;SDS011;52863;52.504;13.480;2022-10-17T08:10:53;5.03;;;3.33;;
51872;SDS011;52863;52.504;13.480;2022-10-17T08:13:20;5.80;;;3.53;;
51872;SDS011;52863;52.504;13.480;2022-10-17T08:15:49;3.90;;;3.13;;
51872;SDS011;52863;52.504;13.480;2022-10-17T08:18:16;3.97;;;2.63;;
51872;SDS011;52863;52.504;13.480;2022-10-17T08:20:43;2.97;;;2.53;;
51872;SDS011;52863;52.504;13.480;2022-10-17T08:23:10;7.23;;;3.00;;
51872;SDS011;52863;52.504;13.480;2022-10-17T08:25:37;3.50;;;2.63;;
51872;SDS011;52863;52.504;13.480;2022-10-17T08:28:04;5.80;;;2.80;;
51872;SDS011;52863;52.504;13.480;2022-10-17T08:30:36;3.80;;;2.60;;
51872;SDS011;52863;52.504;13.480;2022-10-17T08:33:03;4.00;;;2.70;;
51872;SDS011;52863;52.504;13.480;2022-10-17T08:35:30;8.13;;;3.20;;
51872;SDS011;52863;52.504;13.480;2022-10-17T08:37:57;3.53;;;2.67;;
51872;SDS011;52863;52.504;13.480;2022-10-17T08:40:27;4.80;;;2.40;;
51872;SDS011;52863;52.504;13.480;2022-10-17T08:43:16;3.33;;;2.50;;
51872;SDS011;52863;52.504;13.480;2022-10-17T08:45:57;2.60;;;2.40;;
51872;SDS011;52863;52.504;13.480;2022-10-17T08:48:28;3.87;;;2.40;;
51872;SDS011;52863;52.504;13.480;2022-10-17T08:50:58;2.80;;;2.47;;
51872;SDS011;52863;52.504;13.480;2022-10-17T08:53:28;3.40;;;2.17;;
51872;SDS011;52863;52.504;13.480;2022-10-17T08:56:01;3.23;;;2.30;;
51872;SDS011;52863;52.504;13.480;2022-10-17T08:58:40;4.40;;;2.43;;
51872;SDS011;52863;52.504;13.480;2022-10-17T09:01:09;4.77;;;2.43;;
51872;SDS011;52863;52.504;13.480;2022-10-17T09:03:51;3.33;;;2.33;;
51872;SDS011;52863;52.504;13.480;2022-10-17T09:06:30;5.77;;;2.30;;
51872;SDS011;52863;52.504;13.480;2022-10-17T09:09:02;3.07;;;2.30;;
51872;SDS011;52863;52.504;13.480;2022-10-17T09:11:42;3.87;;;2.53;;
51872;SDS011;52863;52.504;13.480;2022-10-17T09:14:26;3.73;;;2.30;;
51872;SDS011;52863;52.504;13.480;2022-10-17T09:17:06;4.33;;;1.83;;
51872;SDS011;52863;52.504;13.480;2022-10-17T09:19:41;3.03;;;2.10;;
51872;SDS011;52863;52.504;13.480;2022-10-17T09:22:14;2.63;;;2.37;;
51872;SDS011;52863;52.504;13.480;2022-10-17T09:24:45;3.53;;;2.33;;
51872;SDS011;52863;52.504;13.480;2022-10-17T09:27:21;2.93;;;2.37;;
51872;SDS011;52863;52.504;13.480;2022-10-17T09:29:52;3.60;;;2.10;;
51872;SDS011;52863;52.504;13.480;2022-10-17T09:32:26;2.93;;;1.90;;
51872;SDS011;52863;52.504;13.480;2022-10-17T09:34:53;3.30;;;2.70;;
51872;SDS011;52863;52.504;13.480;2022-10-17T09:37:21;7.55;;;2.30;;
51872;SDS011;52863;52.504;13.480;2022-10-17T09:39:58;5.27;;;2.17;;
51872;SDS011;52863;52.504;13.480;2022-10-17T09:42:25;2.80;;;2.20;;
51872;SDS011;52863;52.504;13.480;2022-10-17T09:44:54;3.47;;;2.30;;
51872;SDS011;52863;52.504;13.480;2022-10-17T09:47:29;2.83;;;2.07;;
51872;SDS011;52863;52.504;13.480;2022-10-17T09:49:59;3.93;;;2.50;;
51872;SDS011;52863;52.504;13.480;2022-10-17T09:52:28;10.97;;;2.40;;
51872;SDS011;52863;52.504;13.480;2022-10-17T09:54:59;2.97;;;2.33;;
51872;SDS011;52863;52.504;13.480;2022-10-17T09:57:49;3.93;;;2.63;;
51872;SDS011;52863;52.504;13.480;2022-10-17T10:00:19;3.57;;;2.53;;
51872;SDS011;52863;52.504;13.480;2022-10-17T10:03:01;3.13;;;2.53;;
51872;SDS011;52863;52.504;13.480;2022-10-17T10:05:37;5.50;;;2.53;;
51872;SDS011;52863;52.504;13.480;2022-10-17T10:08:12;3.63;;;2.27;;
51872;SDS011;52863;52.504;13.480;2022-10-17T10:10:43;5.73;;;2.50;;
51872;SDS011;52863;52.504;13.480;2022-10-17T10:13:18;4.00;;;2.07;;
51872;SDS011;52863;52.504;13.480;2022-10-17T10:15:48;3.20;;;2.77;;
51872;SDS011;52863;52.504;13.480;2022-10-17T10:18:29;2.07;;;1.87;;
51872;SDS011;52863;52.504;13.480;2022-10-17T10:21:02;3.80;;;1.93;;
51872;SDS011;52863;52.504;13.480;2022-10-17T10:23:32;3.07;;;2.17;;
51872;SDS011;52863;52.504;13.480;2022-10-17T10:26:00;3.73;;;2.13;;
51872;SDS011;52863;52.504;13.480;2022-10-17T10:28:30;2.73;;;2.10;;
51872;SDS011;52863;52.504;13.480;2022-10-17T10:31:01;2.00;;;1.80;;
51872;SDS011;52863;52.504;13.480;2022-10-17T10:33:30;3.27;;;1.77;;
51872;SDS011;52863;52.504;13.480;2022-10-17T10:35:59;3.83;;;2.00;;
51872;SDS011;52863;52.504;13.480;2022-10-17T10:38:28;3.93;;;2.00;;
51872;SDS011;52863;52.504;13.480;2022-10-17T10:41:02;3.37;;;1.90;;
51872;SDS011;52863;52.504;13.480;2022-10-17T10:43:36;2.53;;;1.90;;
51872;SDS011;52863;52.504;13.480;2022-10-17T10:46:04;3.43;;;1.90;;
51872;SDS011;52863;52.504;13.480;2022-10-17T10:48:48;4.90;;;1.87;;
51872;SDS011;52863;52.504;13.480;2022-10-17T10:51:18;6.40;;;1.90;;
51872;SDS011;52863;52.504;13.480;2022-10-17T10:53:49;4.03;;;1.80;;
51872;SDS011;52863;52.504;13.480;2022-10-17T10:56:21;3.35;;;2.25;;
51872;SDS011;52863;52.504;13.480;2022-10-17T10:58:55;5.07;;;1.83;;
51872;SDS011;52863;52.504;13.480;2022-10-17T11:01:29;6.03;;;1.75;;
51872;SDS011;52863;52.504;13.480;2022-10-17T11:04:11;4.45;;;2.08;;
51872;SDS011;52863;52.504;13.480;2022-10-17T11:06:44;6.50;;;1.80;;
51872;SDS011;52863;52.504;13.480;2022-10-17T11:09:15;2.85;;;1.88;;
51872;SDS011;52863;52.504;13.480;2022-10-17T11:11:52;4.03;;;1.70;;
51872;SDS011;52863;52.504;13.480;2022-10-17T11:14:31;3.88;;;1.63;;
51872;SDS011;52863;52.504;13.480;2022-10-17T11:17:04;4.47;;;2.10;;
51872;SDS011;52863;52.504;13.480;2022-10-17T11:19:41;2.90;;;1.77;;
51872;SDS011;52863;52.504;13.480;2022-10-17T11:22:18;3.85;;;1.80;;
51872;SDS011;52863;52.504;13.480;2022-10-17T11:24:55;4.15;;;1.85;;
51872;SDS011;52863;52.504;13.480;2022-10-17T11:27:27;4.30;;;3.15;;
51872;SDS011;52863;52.504;13.480;2022-10-17T11:29:55;2.00;;;1.80;;
51872;SDS011;52863;52.504;13.480;2022-10-17T11:32:25;3.10;;;1.63;;
51872;SDS011;52863;52.504;13.480;2022-10-17T11:34:58;2.13;;;1.73;;
51872;SDS011;52863;52.504;13.480;2022-10-17T11:37:29;4.18;;;1.90;;
51872;SDS011;52863;52.504;13.480;2022-10-17T11:40:02;3.08;;;1.75;;
51872;SDS011;52863;52.504;13.480;2022-10-17T11:42:33;4.63;;;1.70;;
51872;SDS011;52863;52.504;13.480;2022-10-17T11:45:12;3.72;;;1.48;;
51872;SDS011;52863;52.504;13.480;2022-10-17T11:47:43;3.63;;;1.63;;
51872;SDS011;52863;52.504;13.480;2022-10-17T11:50:19;4.25;;;1.90;;
51872;SDS011;52863;52.504;13.480;2022-10-17T11:53:10;4.10;;;2.20;;
51872;SDS011;52863;52.504;13.480;2022-10-17T11:55:39;6.17;;;1.97;;
51872;SDS011;52863;52.504;13.480;2022-10-17T11:58:13;3.57;;;1.80;;
51872;SDS011;52863;52.504;13.480;2022-10-17T12:00:53;6.63;;;3.00;;
51872;SDS011;52863;52.504;13.480;2022-10-17T12:03:28;2.30;;;2.10;;
51872;SDS011;52863;52.504;13.480;2022-10-17T12:06:07;2.80;;;2.47;;
51872;SDS011;52863;52.504;13.480;2022-10-17T12:08:40;4.97;;;2.43;;
51872;SDS011;52863;52.504;13.480;2022-10-17T12:11:13;5.93;;;2.47;;
51872;SDS011;52863;52.504;13.480;2022-10-17T12:13:49;4.13;;;2.70;;
51872;SDS011;52863;52.504;13.480;2022-10-17T12:16:35;4.43;;;3.10;;
51872;SDS011;52863;52.504;13.480;2022-10-17T12:19:25;5.80;;;2.50;;
51872;SDS011;52863;52.504;13.480;2022-10-17T12:22:03;4.83;;;2.90;;
51872;SDS011;52863;52.504;13.480;2022-10-17T12:24:42;4.17;;;2.63;;
51872;SDS011;52863;52.504;13.480;2022-10-17T12:30:15;4.87;;;2.67;;
51872;SDS011;52863;52.504;13.480;2022-10-17T12:32:56;5.67;;;2.60;;
51872;SDS011;52863;52.504;13.480;2022-10-17T12:35:33;5.23;;;2.83;;
51872;SDS011;52863;52.504;13.480;2022-10-17T12:40:49;3.50;;;2.93;;
51872;SDS011;52863;52.504;13.480;2022-10-17T12:46:10;5.07;;;2.63;;
51872;SDS011;52863;52.504;13.480;2022-10-17T12:49:00;6.90;;;3.00;;
51872;SDS011;52863;52.504;13.480;2022-10-17T12:51:29;4.80;;;3.30;;
51872;SDS011;52863;52.504;13.480;2022-10-17T12:54:47;4.93;;;2.90;;
51872;SDS011;52863;52.504;13.480;2022-10-17T12:57:38;5.53;;;3.10;;
51872;SDS011;52863;52.504;13.480;2022-10-17T13:00:19;5.50;;;2.90;;
51872;SDS011;52863;52.504;13.480;2022-10-17T13:03:45;4.03;;;3.03;;
51872;SDS011;52863;52.504;13.480;2022-10-17T13:06:16;5.67;;;2.77;;
51872;SDS011;52863;52.504;13.480;2022-10-17T13:08:47;3.70;;;2.37;;
51872;SDS011;52863;52.504;13.480;2022-10-17T13:11:23;3.73;;;2.50;;
51872;SDS011;52863;52.504;13.480;2022-10-17T13:13:53;4.57;;;2.93;;
51872;SDS011;52863;52.504;13.480;2022-10-17T13:16:26;5.30;;;2.90;;
51872;SDS011;52863;52.504;13.480;2022-10-17T13:18:54;6.03;;;2.47;;
51872;SDS011;52863;52.504;13.480;2022-10-17T13:21:22;5.00;;;2.63;;
51872;SDS011;52863;52.504;13.480;2022-10-17T13:23:49;3.97;;;2.70;;
51872;SDS011;52863;52.504;13.480;2022-10-17T13:26:19;5.47;;;2.40;;
51872;SDS011;52863;52.504;13.480;2022-10-17T13:28:59;7.37;;;2.83;;
51872;SDS011;52863;52.504;13.480;2022-10-17T13:31:28;2.80;;;2.50;;
51872;SDS011;52863;52.504;13.480;2022-10-17T13:33:56;5.93;;;2.53;;
51872;SDS011;52863;52.504;13.480;2022-10-17T13:36:25;9.70;;;2.90;;
51872;SDS011;52863;52.504;13.480;2022-10-17T13:38:53;8.00;;;2.90;;
51872;SDS011;52863;52.504;13.480;2022-10-17T13:41:23;5.47;;;2.40;;
51872;SDS011;52863;52.504;13.480;2022-10-17T13:44:02;6.90;;;2.47;;
51872;SDS011;52863;52.504;13.480;2022-10-17T13:46:32;7.23;;;2.40;;
51872;SDS011;52863;52.504;13.480;2022-10-17T13:49:09;4.27;;;2.63;;
51872;SDS011;52863;52.504;13.480;2022-10-17T13:51:42;4.07;;;2.67;;
51872;SDS011;52863;52.504;13.480;2022-10-17T13:54:18;3.70;;;2.33;;
51872;SDS011;52863;52.504;13.480;2022-10-17T13:56:56;4.70;;;2.77;;
51872;SDS011;52863;52.504;13.480;2022-10-17T13:59:24;4.07;;;2.50;;
51872;SDS011;52863;52.504;13.480;2022-10-17T14:01:54;4.10;;;2.40;;
51872;SDS011;52863;52.504;13.480;2022-10-17T14:04:21;5.60;;;2.57;;
51872;SDS011;52863;52.504;13.480;2022-10-17T14:06:49;5.50;;;2.37;;
51872;SDS011;52863;52.504;13.480;2022-10-17T14:09:20;2.60;;;2.10;;
51872;SDS011;52863;52.504;13.480;2022-10-17T14:11:55;5.20;;;2.27;;
51872;SDS011;52863;52.504;13.480;2022-10-17T14:14:24;3.47;;;1.90;;
51872;SDS011;52863;52.504;13.480;2022-10-17T14:16:51;2.53;;;2.17;;
51872;SDS011;52863;52.504;13.480;2022-10-17T14:19:22;5.03;;;2.30;;
51872;SDS011;52863;52.504;13.480;2022-10-17T14:21:52;4.23;;;2.40;;
51872;SDS011;52863;52.504;13.480;2022-10-17T14:24:26;8.70;;;2.30;;
51872;SDS011;52863;52.504;13.480;2022-10-17T14:26:54;4.33;;;2.20;;
51872;SDS011;52863;52.504;13.480;2022-10-17T14:29:24;4.10;;;2.00;;
51872;SDS011;52863;52.504;13.480;2022-10-17T14:31:59;3.43;;;2.33;;
51872;SDS011;52863;52.504;13.480;2022-10-17T14:34:30;5.73;;;2.23;;
51872;SDS011;52863;52.504;13.480;2022-10-17T14:36:59;3.63;;;2.33;;
51872;SDS011;52863;52.504;13.480;2022-10-17T14:39:27;3.73;;;2.30;;
51872;SDS011;52863;52.504;13.480;2022-10-17T14:41:54;3.63;;;2.27;;
51872;SDS011;52863;52.504;13.480;2022-10-17T14:44:27;3.90;;;2.27;;
51872;SDS011;52863;52.504;13.480;2022-10-17T14:46:57;6.10;;;2.40;;
51872;SDS011;52863;52.504;13.480;2022-10-17T14:49:39;5.50;;;2.03;;
51872;SDS011;52863;52.504;13.480;2022-10-17T14:52:24;5.17;;;2.53;;
51872;SDS011;52863;52.504;13.480;2022-10-17T14:54:56;3.30;;;2.60;;
51872;SDS011;52863;52.504;13.480;2022-10-17T14:57:26;5.43;;;2.43;;
51872;SDS011;52863;52.504;13.480;2022-10-17T14:59:59;4.60;;;2.30;;
51872;SDS011;52863;52.504;13.480;2022-10-17T15:02:27;4.13;;;2.27;;
51872;SDS011;52863;52.504;13.480;2022-10-17T15:04:55;6.93;;;2.50;;